sensor_id;sensor_type;location;lat;lon;timestamp;pressure;altitude;pressure_sealevel;temperature;humidity
58467;BME280;44255;49.244;7.726;2022-07-01T03:31:12;98440.00;;;14.65;65.48
58467;BME280;44255;49.244;7.726;2022-07-01T03:33:37;98439.78;;;14.68;65.07
58467;BME280;44255;49.244;7.726;2022-07-01T03:36:03;98444.81;;;14.36;66.46
58467;BME280;44255;49.244;7.726;2022-07-01T03:38:28;98441.16;;;14.24;65.99
58467;BME280;44255;49.244;7.726;2022-07-01T03:40:53;98437.25;;;13.63;68.35
58467;BME280;44255;49.244;7.726;2022-07-01T03:43:19;98443.69;;;14.01;68.23
58467;BME280;44255;49.244;7.726;2022-07-01T03:45:44;98449.38;;;14.09;69.20
58467;BME280;44255;49.244;7.726;2022-07-01T03:48:09;98460.50;;;14.17;69.16
58467;BME280;44255;49.244;7.726;2022-07-01T03:50:36;98466.19;;;14.00;68.54
58467;BME280;44255;49.244;7.726;2022-07-01T03:53:01;98469.31;;;14.07;68.33
58467;BME280;44255;49.244;7.726;2022-07-01T03:55:45;98468.16;;;14.11;68.61
58467;BME280;44255;49.244;7.726;2022-07-01T03:58:10;98476.63;;;13.91;68.67
58467;BME280;44255;49.244;7.726;2022-07-01T04:00:37;98476.34;;;14.09;69.54
58467;BME280;44255;49.244;7.726;2022-07-01T04:03:04;98483.88;;;14.30;67.82
58467;BME280;44255;49.244;7.726;2022-07-01T04:05:33;98491.66;;;14.22;67.32
58467;BME280;44255;49.244;7.726;2022-07-01T04:07:59;98490.34;;;14.14;68.30
58467;BME280;44255;49.244;7.726;2022-07-01T04:10:24;98498.44;;;14.14;67.46
58467;BME280;44255;49.244;7.726;2022-07-01T04:12:50;98503.31;;;14.35;66.69
58467;BME280;44255;49.244;7.726;2022-07-01T04:15:15;98503.63;;;14.43;67.08
58467;BME280;44255;49.244;7.726;2022-07-01T04:17:41;98505.38;;;14.31;67.32
58467;BME280;44255;49.244;7.726;2022-07-01T04:20:07;98506.22;;;14.32;66.98
58467;BME280;44255;49.244;7.726;2022-07-01T04:22:32;98510.66;;;14.20;66.73
58467;BME280;44255;49.244;7.726;2022-07-01T04:24:59;98503.91;;;13.87;68.44
58467;BME280;44255;49.244;7.726;2022-07-01T04:27:25;98503.75;;;14.29;67.06
58467;BME280;44255;49.244;7.726;2022-07-01T04:29:51;98508.50;;;14.38;66.48
58467;BME280;44255;49.244;7.726;2022-07-01T04:32:16;98512.50;;;14.32;66.61
58467;BME280;44255;49.244;7.726;2022-07-01T04:34:42;98506.31;;;14.43;66.37
58467;BME280;44255;49.244;7.726;2022-07-01T04:37:07;98514.53;;;14.03;67.45
58467;BME280;44255;49.244;7.726;2022-07-01T04:39:32;98506.97;;;14.34;66.96
58467;BME280;44255;49.244;7.726;2022-07-01T04:41:58;98520.25;;;14.50;66.19
58467;BME280;44255;49.244;7.726;2022-07-01T04:44:27;98521.22;;;14.10;67.80
58467;BME280;44255;49.244;7.726;2022-07-01T04:46:53;98513.66;;;14.15;67.28
58467;BME280;44255;49.244;7.726;2022-07-01T04:49:18;98510.66;;;14.46;67.22
58467;BME280;44255;49.244;7.726;2022-07-01T04:51:44;98499.94;;;14.57;66.69
58467;BME280;44255;49.244;7.726;2022-07-01T04:54:09;98480.41;;;14.54;67.58
58467;BME280;44255;49.244;7.726;2022-07-01T04:56:36;98476.28;;;14.61;66.73
58467;BME280;44255;49.244;7.726;2022-07-01T04:59:02;98483.19;;;14.65;66.98
58467;BME280;44255;49.244;7.726;2022-07-01T05:01:27;98486.16;;;14.36;68.88
58467;BME280;44255;49.244;7.726;2022-07-01T05:03:53;98481.19;;;14.30;66.95
58467;BME280;44255;49.244;7.726;2022-07-01T05:06:18;98480.72;;;14.62;65.83
58467;BME280;44255;49.244;7.726;2022-07-01T05:08:44;98480.72;;;14.62;65.57
58467;BME280;44255;49.244;7.726;2022-07-01T05:11:09;98476.41;;;14.46;65.85
58467;BME280;44255;49.244;7.726;2022-07-01T05:13:35;98496.50;;;14.55;65.18
58467;BME280;44255;49.244;7.726;2022-07-01T05:16:02;98490.78;;;14.21;66.22
58467;BME280;44255;49.244;7.726;2022-07-01T05:18:27;98490.03;;;14.19;66.17
58467;BME280;44255;49.244;7.726;2022-07-01T05:21:11;98502.03;;;14.15;66.79
58467;BME280;44255;49.244;7.726;2022-07-01T05:23:56;98487.56;;;14.03;67.04
58467;BME280;44255;49.244;7.726;2022-07-01T05:26:21;98491.78;;;14.07;66.42
58467;BME280;44255;49.244;7.726;2022-07-01T05:28:47;98495.97;;;14.11;66.38
58467;BME280;44255;49.244;7.726;2022-07-01T05:31:12;98517.00;;;13.66;69.02
58467;BME280;44255;49.244;7.726;2022-07-01T05:33:39;98512.75;;;13.89;67.58
58467;BME280;44255;49.244;7.726;2022-07-01T05:36:05;98503.97;;;14.13;66.82
58467;BME280;44255;49.244;7.726;2022-07-01T05:38:31;98510.03;;;13.76;67.09
58467;BME280;44255;49.244;7.726;2022-07-01T05:40:56;98510.03;;;13.76;67.35
58467;BME280;44255;49.244;7.726;2022-07-01T05:43:21;98510.66;;;14.07;67.95
58467;BME280;44255;49.244;7.726;2022-07-01T05:45:47;98507.56;;;13.86;67.70
58467;BME280;44255;49.244;7.726;2022-07-01T05:48:12;98504.47;;;13.92;68.11
58467;BME280;44255;49.244;7.726;2022-07-01T05:50:39;98505.69;;;14.14;67.09
58467;BME280;44255;49.244;7.726;2022-07-01T05:53:04;98503.53;;;14.19;66.45
58467;BME280;44255;49.244;7.726;2022-07-01T05:55:30;98502.44;;;14.35;66.37
58467;BME280;44255;49.244;7.726;2022-07-01T05:57:55;98511.94;;;14.40;65.77
58467;BME280;44255;49.244;7.726;2022-07-01T06:00:20;98519.84;;;14.30;66.73
58467;BME280;44255;49.244;7.726;2022-07-01T06:02:45;98530.72;;;14.16;68.02
58467;BME280;44255;49.244;7.726;2022-07-01T06:05:11;98532.13;;;14.22;67.25
58467;BME280;44255;49.244;7.726;2022-07-01T06:07:39;98518.72;;;14.59;66.40
58467;BME280;44255;49.244;7.726;2022-07-01T06:10:06;98509.75;;;14.71;64.95
58467;BME280;44255;49.244;7.726;2022-07-01T06:12:32;98515.41;;;14.42;65.76
58467;BME280;44255;49.244;7.726;2022-07-01T06:14:57;98515.84;;;14.36;65.88
58467;BME280;44255;49.244;7.726;2022-07-01T06:17:22;98532.88;;;14.50;64.92
58467;BME280;44255;49.244;7.726;2022-07-01T06:19:48;98544.44;;;14.13;65.74
58467;BME280;44255;49.244;7.726;2022-07-01T06:22:13;98552.72;;;14.36;66.30
58467;BME280;44255;49.244;7.726;2022-07-01T06:24:41;98546.38;;;14.24;66.18
58467;BME280;44255;49.244;7.726;2022-07-01T06:27:07;98531.88;;;14.51;65.57
58467;BME280;44255;49.244;7.726;2022-07-01T06:29:32;98527.72;;;14.21;66.20
58467;BME280;44255;49.244;7.726;2022-07-01T06:31:57;98542.91;;;13.81;66.18
58467;BME280;44255;49.244;7.726;2022-07-01T06:34:23;98545.91;;;13.63;65.75
58467;BME280;44255;49.244;7.726;2022-07-01T06:36:48;98540.28;;;13.94;66.54
58467;BME280;44255;49.244;7.726;2022-07-01T06:39:13;98550.78;;;14.25;66.70
58467;BME280;44255;49.244;7.726;2022-07-01T06:41:38;98554.44;;;14.50;65.15
58467;BME280;44255;49.244;7.726;2022-07-01T06:44:04;98546.38;;;14.11;65.04
58467;BME280;44255;49.244;7.726;2022-07-01T06:46:32;98559.84;;;14.37;66.17
58467;BME280;44255;49.244;7.726;2022-07-01T06:48:58;98576.25;;;14.46;64.84
58467;BME280;44255;49.244;7.726;2022-07-01T06:51:24;98582.75;;;14.44;65.16
58467;BME280;44255;49.244;7.726;2022-07-01T06:53:50;98608.00;;;14.69;64.00
58467;BME280;44255;49.244;7.726;2022-07-01T06:56:16;98608.66;;;14.72;64.66
58467;BME280;44255;49.244;7.726;2022-07-01T06:58:42;98620.22;;;14.61;64.86
58467;BME280;44255;49.244;7.726;2022-07-01T07:01:08;98625.84;;;14.71;64.58
58467;BME280;44255;49.244;7.726;2022-07-01T07:03:33;98623.31;;;14.29;64.49
58467;BME280;44255;49.244;7.726;2022-07-01T07:05:59;98606.41;;;13.72;66.57
58467;BME280;44255;49.244;7.726;2022-07-01T07:08:26;98604.22;;;13.65;65.99
58467;BME280;44255;49.244;7.726;2022-07-01T07:10:51;98590.78;;;14.05;65.21
58467;BME280;44255;49.244;7.726;2022-07-01T07:13:17;98590.81;;;13.50;67.25
58467;BME280;44255;49.244;7.726;2022-07-01T07:15:42;98583.00;;;14.00;66.28
58467;BME280;44255;49.244;7.726;2022-07-01T07:18:07;98574.41;;;14.08;66.32
58467;BME280;44255;49.244;7.726;2022-07-01T07:20:34;98580.91;;;14.31;65.59
58467;BME280;44255;49.244;7.726;2022-07-01T07:22:59;98580.38;;;14.39;64.74
58467;BME280;44255;49.244;7.726;2022-07-01T07:25:24;98578.38;;;14.15;65.66
58467;BME280;44255;49.244;7.726;2022-07-01T07:27:50;98576.69;;;14.27;65.03
58467;BME280;44255;49.244;7.726;2022-07-01T07:30:16;98563.53;;;14.10;65.15
58467;BME280;44255;49.244;7.726;2022-07-01T07:32:42;98558.78;;;14.39;64.61
58467;BME280;44255;49.244;7.726;2022-07-01T07:35:08;98567.19;;;14.35;65.22
58467;BME280;44255;49.244;7.726;2022-07-01T07:37:33;98567.53;;;14.56;64.52
58467;BME280;44255;49.244;7.726;2022-07-01T07:39:59;98565.91;;;14.40;64.88
58467;BME280;44255;49.244;7.726;2022-07-01T07:42:26;98562.66;;;14.22;65.40
58467;BME280;44255;49.244;7.726;2022-07-01T07:44:51;98563.75;;;14.19;65.88
58467;BME280;44255;49.244;7.726;2022-07-01T07:47:17;98557.69;;;14.16;65.55
58467;BME280;44255;49.244;7.726;2022-07-01T07:49:42;98553.47;;;14.51;64.66
58467;BME280;44255;49.244;7.726;2022-07-01T07:52:07;98564.28;;;14.51;64.88
58467;BME280;44255;49.244;7.726;2022-07-01T07:54:32;98554.78;;;14.71;64.66
58467;BME280;44255;49.244;7.726;2022-07-01T07:56:58;98555.00;;;14.55;65.47
58467;BME280;44255;49.244;7.726;2022-07-01T07:59:23;98553.13;;;14.68;64.51
58467;BME280;44255;49.244;7.726;2022-07-01T08:01:48;98566.25;;;13.95;66.85
58467;BME280;44255;49.244;7.726;2022-07-01T08:04:14;98576.69;;;14.40;65.66
58467;BME280;44255;49.244;7.726;2022-07-01T08:06:39;98589.75;;;14.59;66.06
58467;BME280;44255;49.244;7.726;2022-07-01T08:09:04;98598.50;;;14.50;65.92
58467;BME280;44255;49.244;7.726;2022-07-01T08:11:30;98590.19;;;14.40;66.31
58467;BME280;44255;49.244;7.726;2022-07-01T08:13:55;98582.41;;;14.74;64.04
58467;BME280;44255;49.244;7.726;2022-07-01T08:16:21;98578.28;;;15.08;63.44
58467;BME280;44255;49.244;7.726;2022-07-01T08:18:46;98580.91;;;14.83;62.99
58467;BME280;44255;49.244;7.726;2022-07-01T08:21:11;98602.41;;;14.59;63.74
58467;BME280;44255;49.244;7.726;2022-07-01T08:23:37;98600.44;;;15.00;63.33
58467;BME280;44255;49.244;7.726;2022-07-01T08:26:02;98607.03;;;15.09;62.87
58467;BME280;44255;49.244;7.726;2022-07-01T08:28:28;98599.91;;;15.08;61.29
58467;BME280;44255;49.244;7.726;2022-07-01T08:30:53;98614.25;;;15.21;61.48
58467;BME280;44255;49.244;7.726;2022-07-01T08:33:18;98619.47;;;14.98;62.59
58467;BME280;44255;49.244;7.726;2022-07-01T08:35:44;98624.22;;;15.08;60.55
58467;BME280;44255;49.244;7.726;2022-07-01T08:38:09;98623.88;;;14.99;61.85
58467;BME280;44255;49.244;7.726;2022-07-01T08:40:34;98627.09;;;15.17;61.45
58467;BME280;44255;49.244;7.726;2022-07-01T08:43:05;98629.06;;;14.89;62.09
58467;BME280;44255;49.244;7.726;2022-07-01T08:45:33;98623.84;;;15.25;61.17
58467;BME280;44255;49.244;7.726;2022-07-01T08:47:59;98620.13;;;15.39;60.82
58467;BME280;44255;49.244;7.726;2022-07-01T08:50:34;98627.75;;;15.58;60.17
58467;BME280;44255;49.244;7.726;2022-07-01T08:53:00;98621.72;;;15.79;58.07
58467;BME280;44255;49.244;7.726;2022-07-01T08:55:25;98634.53;;;15.27;57.20
58467;BME280;44255;49.244;7.726;2022-07-01T08:57:50;98631.34;;;15.46;56.43
58467;BME280;44255;49.244;7.726;2022-07-01T09:00:16;98631.59;;;15.43;58.38
58467;BME280;44255;49.244;7.726;2022-07-01T09:03:02;98639.94;;;15.27;58.23
58467;BME280;44255;49.244;7.726;2022-07-01T09:05:29;98639.69;;;15.43;58.79
58467;BME280;44255;49.244;7.726;2022-07-01T09:07:57;98644.63;;;15.49;58.96
58467;BME280;44255;49.244;7.726;2022-07-01T09:10:24;98648.44;;;15.71;57.47
58467;BME280;44255;49.244;7.726;2022-07-01T09:12:49;98650.00;;;15.62;57.93
58467;BME280;44255;49.244;7.726;2022-07-01T09:15:29;98664.38;;;15.25;58.61
58467;BME280;44255;49.244;7.726;2022-07-01T09:18:15;98661.41;;;15.54;60.61
58467;BME280;44255;49.244;7.726;2022-07-01T09:20:45;98658.84;;;15.40;58.15
58467;BME280;44255;49.244;7.726;2022-07-01T09:23:15;98651.16;;;15.71;56.76
58467;BME280;44255;49.244;7.726;2022-07-01T09:25:46;98653.28;;;15.54;55.89
58467;BME280;44255;49.244;7.726;2022-07-01T09:28:19;98652.50;;;15.65;57.66
58467;BME280;44255;49.244;7.726;2022-07-01T09:30:52;98651.06;;;15.72;56.83
58467;BME280;44255;49.244;7.726;2022-07-01T09:33:18;98651.41;;;15.81;57.55
58467;BME280;44255;49.244;7.726;2022-07-01T09:35:45;98647.38;;;16.22;56.18
58467;BME280;44255;49.244;7.726;2022-07-01T09:38:14;98642.56;;;16.14;55.18
58467;BME280;44255;49.244;7.726;2022-07-01T09:41:00;98639.56;;;16.42;55.58
58467;BME280;44255;49.244;7.726;2022-07-01T09:46:10;98635.66;;;16.93;53.22
58467;BME280;44255;49.244;7.726;2022-07-01T09:51:02;98646.75;;;16.54;52.82
58467;BME280;44255;49.244;7.726;2022-07-01T09:53:28;98646.44;;;16.35;53.24
58467;BME280;44255;49.244;7.726;2022-07-01T09:55:53;98643.50;;;16.85;50.96
58467;BME280;44255;49.244;7.726;2022-07-01T09:58:19;98649.94;;;16.95;50.11
58467;BME280;44255;49.244;7.726;2022-07-01T10:00:45;98645.44;;;16.71;52.06
58467;BME280;44255;49.244;7.726;2022-07-01T10:03:11;98654.59;;;16.46;53.44
58467;BME280;44255;49.244;7.726;2022-07-01T10:05:42;98659.59;;;16.39;55.78
58467;BME280;44255;49.244;7.726;2022-07-01T10:08:49;98658.03;;;16.48;53.80
58467;BME280;44255;49.244;7.726;2022-07-01T10:14:09;98656.69;;;16.90;52.85
58467;BME280;44255;49.244;7.726;2022-07-01T10:16:35;98652.25;;;16.88;51.75
58467;BME280;44255;49.244;7.726;2022-07-01T10:21:52;98654.09;;;16.99;51.22
58467;BME280;44255;49.244;7.726;2022-07-01T10:24:19;98657.44;;;16.92;53.38
58467;BME280;44255;49.244;7.726;2022-07-01T10:26:46;98655.56;;;17.03;54.73
58467;BME280;44255;49.244;7.726;2022-07-01T10:29:44;98660.00;;;17.39;53.94
58467;BME280;44255;49.244;7.726;2022-07-01T10:32:10;98656.19;;;17.64;52.38
58467;BME280;44255;49.244;7.726;2022-07-01T10:34:50;98657.44;;;17.60;52.19
58467;BME280;44255;49.244;7.726;2022-07-01T10:37:27;98647.31;;;17.39;49.33
58467;BME280;44255;49.244;7.726;2022-07-01T10:39:59;98646.19;;;17.42;49.92
58467;BME280;44255;49.244;7.726;2022-07-01T10:42:56;98651.13;;;17.37;49.00
58467;BME280;44255;49.244;7.726;2022-07-01T10:45:21;98650.91;;;17.17;48.66
58467;BME280;44255;49.244;7.726;2022-07-01T10:47:46;98648.69;;;17.11;49.39
58467;BME280;44255;49.244;7.726;2022-07-01T10:50:14;98645.34;;;17.41;48.92
58467;BME280;44255;49.244;7.726;2022-07-01T10:53:03;98642.03;;;17.49;49.08
58467;BME280;44255;49.244;7.726;2022-07-01T10:55:40;98648.44;;;17.25;47.28
58467;BME280;44255;49.244;7.726;2022-07-01T10:58:06;98640.53;;;17.22;47.55
58467;BME280;44255;49.244;7.726;2022-07-01T11:00:33;98650.41;;;17.35;49.59
58467;BME280;44255;49.244;7.726;2022-07-01T11:03:24;98647.94;;;17.66;49.49
58467;BME280;44255;49.244;7.726;2022-07-01T11:05:52;98642.31;;;17.90;49.62
58467;BME280;44255;49.244;7.726;2022-07-01T11:08:18;98640.97;;;18.17;48.90
58467;BME280;44255;49.244;7.726;2022-07-01T11:10:44;98644.28;;;18.32;46.64
58467;BME280;44255;49.244;7.726;2022-07-01T11:13:14;98634.00;;;18.03;46.19
58467;BME280;44255;49.244;7.726;2022-07-01T11:15:40;98624.88;;;18.58;46.83
58467;BME280;44255;49.244;7.726;2022-07-01T11:18:07;98636.38;;;18.71;44.75
58467;BME280;44255;49.244;7.726;2022-07-01T11:20:32;98633.72;;;18.81;44.15
58467;BME280;44255;49.244;7.726;2022-07-01T11:22:58;98628.91;;;19.57;41.34
58467;BME280;44255;49.244;7.726;2022-07-01T11:25:23;98625.38;;;19.25;42.70
58467;BME280;44255;49.244;7.726;2022-07-01T11:27:50;98625.28;;;19.97;42.30
58467;BME280;44255;49.244;7.726;2022-07-01T11:30:17;98626.34;;;19.75;41.92
58467;BME280;44255;49.244;7.726;2022-07-01T11:32:45;98628.97;;;19.77;40.78
58467;BME280;44255;49.244;7.726;2022-07-01T11:35:25;98632.09;;;19.21;40.60
58467;BME280;44255;49.244;7.726;2022-07-01T11:38:24;98629.13;;;19.34;41.57
58467;BME280;44255;49.244;7.726;2022-07-01T11:41:18;98643.97;;;18.99;41.74
58467;BME280;44255;49.244;7.726;2022-07-01T11:43:43;98653.00;;;18.57;42.35
58467;BME280;44255;49.244;7.726;2022-07-01T11:46:09;98647.25;;;18.93;42.00
58467;BME280;44255;49.244;7.726;2022-07-01T11:48:39;98652.63;;;18.83;43.03
58467;BME280;44255;49.244;7.726;2022-07-01T11:51:19;98658.66;;;18.44;43.32
58467;BME280;44255;49.244;7.726;2022-07-01T11:53:47;98659.06;;;18.61;44.09
58467;BME280;44255;49.244;7.726;2022-07-01T11:56:29;98655.41;;;18.71;43.26
58467;BME280;44255;49.244;7.726;2022-07-01T11:58:55;98659.22;;;18.69;43.58
58467;BME280;44255;49.244;7.726;2022-07-01T12:01:25;98656.84;;;18.76;43.56
58467;BME280;44255;49.244;7.726;2022-07-01T12:03:51;98656.13;;;18.73;43.98
58467;BME280;44255;49.244;7.726;2022-07-01T12:06:17;98650.81;;;19.55;42.62
58467;BME280;44255;49.244;7.726;2022-07-01T12:08:45;98640.72;;;20.76;39.45
58467;BME280;44255;49.244;7.726;2022-07-01T12:11:11;98630.72;;;21.42;38.13
58467;BME280;44255;49.244;7.726;2022-07-01T12:13:36;98629.44;;;22.10;37.79
58467;BME280;44255;49.244;7.726;2022-07-01T12:16:08;98619.41;;;22.74;35.42
58467;BME280;44255;49.244;7.726;2022-07-01T12:18:34;98622.13;;;23.27;35.77
58467;BME280;44255;49.244;7.726;2022-07-01T12:21:00;98620.13;;;23.45;34.48
58467;BME280;44255;49.244;7.726;2022-07-01T12:23:25;98621.22;;;23.61;33.42
58467;BME280;44255;49.244;7.726;2022-07-01T12:25:51;98617.81;;;23.75;33.72
58467;BME280;44255;49.244;7.726;2022-07-01T12:28:37;98622.25;;;23.68;32.93
58467;BME280;44255;49.244;7.726;2022-07-01T12:31:08;98616.47;;;23.79;32.99
58467;BME280;44255;49.244;7.726;2022-07-01T12:33:39;98618.84;;;22.96;35.88
58467;BME280;44255;49.244;7.726;2022-07-01T12:36:05;98620.19;;;23.70;33.52
58467;BME280;44255;49.244;7.726;2022-07-01T12:38:32;98616.03;;;24.17;32.09
58467;BME280;44255;49.244;7.726;2022-07-01T12:40:57;98607.50;;;24.45;33.44
58467;BME280;44255;49.244;7.726;2022-07-01T12:43:31;98608.31;;;24.21;31.19
58467;BME280;44255;49.244;7.726;2022-07-01T12:46:00;98603.81;;;23.01;32.65
58467;BME280;44255;49.244;7.726;2022-07-01T12:48:26;98608.31;;;22.12;33.35
58467;BME280;44255;49.244;7.726;2022-07-01T12:50:53;98609.34;;;23.09;33.44
58467;BME280;44255;49.244;7.726;2022-07-01T12:53:20;98611.25;;;22.19;32.91
58467;BME280;44255;49.244;7.726;2022-07-01T12:55:49;98618.94;;;21.69;33.58
58467;BME280;44255;49.244;7.726;2022-07-01T12:58:20;98619.50;;;21.45;34.26
58467;BME280;44255;49.244;7.726;2022-07-01T13:00:47;98621.41;;;21.07;34.99
58467;BME280;44255;49.244;7.726;2022-07-01T13:03:13;98623.09;;;21.08;35.46
58467;BME280;44255;49.244;7.726;2022-07-01T13:05:40;98629.28;;;19.83;37.07
58467;BME280;44255;49.244;7.726;2022-07-01T13:08:06;98635.28;;;19.87;37.84
58467;BME280;44255;49.244;7.726;2022-07-01T13:10:32;98639.56;;;19.80;38.44
58467;BME280;44255;49.244;7.726;2022-07-01T13:12:58;98636.53;;;19.73;38.22
58467;BME280;44255;49.244;7.726;2022-07-01T13:15:23;98633.91;;;19.62;39.43
58467;BME280;44255;49.244;7.726;2022-07-01T13:17:49;98626.69;;;20.11;38.94
58467;BME280;44255;49.244;7.726;2022-07-01T13:20:15;98625.06;;;19.69;39.84
58467;BME280;44255;49.244;7.726;2022-07-01T13:22:41;98635.38;;;19.66;41.53
58467;BME280;44255;49.244;7.726;2022-07-01T13:25:07;98634.44;;;20.06;42.12
58467;BME280;44255;49.244;7.726;2022-07-01T13:27:32;98639.59;;;20.29;41.71
58467;BME280;44255;49.244;7.726;2022-07-01T13:29:58;98632.31;;;20.49;39.33
58467;BME280;44255;49.244;7.726;2022-07-01T13:32:24;98634.16;;;20.09;39.16
58467;BME280;44255;49.244;7.726;2022-07-01T13:34:50;98636.28;;;20.16;39.22
58467;BME280;44255;49.244;7.726;2022-07-01T13:37:15;98637.88;;;20.38;39.01
58467;BME280;44255;49.244;7.726;2022-07-01T13:39:40;98630.84;;;20.16;38.27
58467;BME280;44255;49.244;7.726;2022-07-01T13:42:06;98636.16;;;20.17;38.78
58467;BME280;44255;49.244;7.726;2022-07-01T13:44:32;98631.28;;;20.50;38.20
58467;BME280;44255;49.244;7.726;2022-07-01T13:46:57;98627.09;;;20.76;38.09
58467;BME280;44255;49.244;7.726;2022-07-01T13:49:22;98635.03;;;21.07;37.87
58467;BME280;44255;49.244;7.726;2022-07-01T13:51:48;98641.56;;;21.24;35.54
58467;BME280;44255;49.244;7.726;2022-07-01T13:54:13;98637.16;;;21.13;36.07
58467;BME280;44255;49.244;7.726;2022-07-01T13:56:39;98637.44;;;21.20;36.38
58467;BME280;44255;49.244;7.726;2022-07-01T13:59:04;98637.16;;;21.13;34.12
58467;BME280;44255;49.244;7.726;2022-07-01T14:01:29;98637.63;;;20.51;35.10
58467;BME280;44255;49.244;7.726;2022-07-01T14:03:56;98642.31;;;20.68;34.88
58467;BME280;44255;49.244;7.726;2022-07-01T14:06:22;98652.19;;;20.20;35.53
58467;BME280;44255;49.244;7.726;2022-07-01T14:08:47;98638.75;;;20.58;35.05
58467;BME280;44255;49.244;7.726;2022-07-01T14:11:12;98645.31;;;20.26;35.06
58467;BME280;44255;49.244;7.726;2022-07-01T14:13:38;98652.47;;;20.37;35.32
58467;BME280;44255;49.244;7.726;2022-07-01T14:16:05;98648.19;;;20.44;35.24
58467;BME280;44255;49.244;7.726;2022-07-01T14:18:33;98649.16;;;20.82;34.59
58467;BME280;44255;49.244;7.726;2022-07-01T14:20:59;98644.56;;;20.83;34.96
58467;BME280;44255;49.244;7.726;2022-07-01T14:23:25;98652.81;;;21.49;34.45
58467;BME280;44255;49.244;7.726;2022-07-01T14:25:50;98653.94;;;21.08;35.30
58467;BME280;44255;49.244;7.726;2022-07-01T14:28:15;98651.47;;;21.15;34.55
58467;BME280;44255;49.244;7.726;2022-07-01T14:30:41;98651.78;;;21.12;33.89
58467;BME280;44255;49.244;7.726;2022-07-01T14:33:06;98649.09;;;21.02;34.50
58467;BME280;44255;49.244;7.726;2022-07-01T14:35:31;98652.16;;;20.89;33.87
58467;BME280;44255;49.244;7.726;2022-07-01T14:37:57;98653.63;;;20.74;37.63
58467;BME280;44255;49.244;7.726;2022-07-01T14:40:23;98658.19;;;20.73;35.10
58467;BME280;44255;49.244;7.726;2022-07-01T14:42:49;98653.34;;;21.24;34.46
58467;BME280;44255;49.244;7.726;2022-07-01T14:45:14;98653.91;;;21.56;34.29
58467;BME280;44255;49.244;7.726;2022-07-01T14:47:43;98650.47;;;21.54;34.78
58467;BME280;44255;49.244;7.726;2022-07-01T14:50:10;98653.31;;;21.34;33.42
58467;BME280;44255;49.244;7.726;2022-07-01T14:52:36;98654.78;;;20.41;34.56
58467;BME280;44255;49.244;7.726;2022-07-01T14:55:02;98651.47;;;20.67;33.79
58467;BME280;44255;49.244;7.726;2022-07-01T14:57:27;98660.66;;;20.47;33.35
58467;BME280;44255;49.244;7.726;2022-07-01T14:59:53;98640.81;;;20.84;33.83
58467;BME280;44255;49.244;7.726;2022-07-01T15:02:18;98650.81;;;21.03;33.19
58467;BME280;44255;49.244;7.726;2022-07-01T15:04:45;98654.38;;;21.23;34.38
58467;BME280;44255;49.244;7.726;2022-07-01T15:07:11;98652.56;;;21.42;34.66
58467;BME280;44255;49.244;7.726;2022-07-01T15:09:36;98647.81;;;21.72;34.90
58467;BME280;44255;49.244;7.726;2022-07-01T15:12:02;98645.06;;;21.72;33.49
58467;BME280;44255;49.244;7.726;2022-07-01T15:14:28;98649.00;;;20.84;34.78
58467;BME280;44255;49.244;7.726;2022-07-01T15:16:54;98654.47;;;21.60;34.82
58467;BME280;44255;49.244;7.726;2022-07-01T15:19:20;98656.69;;;21.46;34.71
58467;BME280;44255;49.244;7.726;2022-07-01T15:21:45;98654.91;;;21.37;34.18
58467;BME280;44255;49.244;7.726;2022-07-01T15:24:10;98651.44;;;20.87;35.38
58467;BME280;44255;49.244;7.726;2022-07-01T15:26:36;98659.97;;;21.12;34.58
58467;BME280;44255;49.244;7.726;2022-07-01T15:29:01;98665.34;;;20.94;37.85
58467;BME280;44255;49.244;7.726;2022-07-01T15:31:26;98663.41;;;21.14;36.44
58467;BME280;44255;49.244;7.726;2022-07-01T15:33:53;98660.22;;;21.29;37.03
58467;BME280;44255;49.244;7.726;2022-07-01T15:36:19;98667.44;;;21.20;37.68
58467;BME280;44255;49.244;7.726;2022-07-01T15:38:44;98665.84;;;21.17;37.06
58467;BME280;44255;49.244;7.726;2022-07-01T15:41:10;98664.81;;;20.80;36.15
58467;BME280;44255;49.244;7.726;2022-07-01T15:43:35;98662.78;;;20.82;37.69
58467;BME280;44255;49.244;7.726;2022-07-01T15:46:01;98672.97;;;20.90;39.79
58467;BME280;44255;49.244;7.726;2022-07-01T15:48:26;98672.25;;;20.88;39.71
58467;BME280;44255;49.244;7.726;2022-07-01T15:50:52;98675.38;;;20.93;38.97
58467;BME280;44255;49.244;7.726;2022-07-01T15:53:18;98674.56;;;20.43;40.38
58467;BME280;44255;49.244;7.726;2022-07-01T15:55:46;98672.53;;;20.75;41.74
58467;BME280;44255;49.244;7.726;2022-07-01T15:58:16;98678.53;;;20.89;41.91
58467;BME280;44255;49.244;7.726;2022-07-01T16:00:45;98676.13;;;20.76;41.24
58467;BME280;44255;49.244;7.726;2022-07-01T16:03:11;98685.75;;;20.70;39.61
58467;BME280;44255;49.244;7.726;2022-07-01T16:05:38;98687.66;;;20.60;40.29
58467;BME280;44255;49.244;7.726;2022-07-01T16:08:08;98688.50;;;20.60;37.93
58467;BME280;44255;49.244;7.726;2022-07-01T16:10:46;98685.31;;;20.45;42.48
58467;BME280;44255;49.244;7.726;2022-07-01T16:13:13;98684.59;;;20.33;41.50
58467;BME280;44255;49.244;7.726;2022-07-01T16:15:40;98687.47;;;20.61;41.09
58467;BME280;44255;49.244;7.726;2022-07-01T16:18:08;98682.03;;;20.71;40.29
58467;BME280;44255;49.244;7.726;2022-07-01T16:20:38;98691.34;;;20.39;40.38
58467;BME280;44255;49.244;7.726;2022-07-01T16:23:04;98688.06;;;20.65;38.93
58467;BME280;44255;49.244;7.726;2022-07-01T16:25:30;98688.81;;;21.15;37.48
58467;BME280;44255;49.244;7.726;2022-07-01T16:27:57;98676.34;;;21.50;36.64
58467;BME280;44255;49.244;7.726;2022-07-01T16:30:23;98691.53;;;21.90;35.26
58467;BME280;44255;49.244;7.726;2022-07-01T16:32:52;98675.13;;;22.54;33.16
58467;BME280;44255;49.244;7.726;2022-07-01T16:35:18;98679.97;;;22.87;33.16
58467;BME280;44255;49.244;7.726;2022-07-01T16:37:51;98679.78;;;23.33;32.70
58467;BME280;44255;49.244;7.726;2022-07-01T16:40:28;98677.75;;;23.78;30.79
58467;BME280;44255;49.244;7.726;2022-07-01T16:42:53;98676.88;;;23.35;30.53